Time;durP1;ratioP1;P1;durP2;ratioP2;P2;SDS_P1;SDS_P2;PMS_P1;PMS_P2;Temp;Humidity;BMP_temperature;BMP_pressure;BME280_temperature;BME280_humidity;BME280_pressure;Samples;Min_cycle;Max_cycle;Signal;HPM_P1;HPM_P2
2021/08/08 04:46:46;;;;;;;56.35;21.73;;;;;;;21.07;67.05;99384.47;5728564;23;19925;-91
2021/08/08 04:49:14;;;;;;;54.85;21.67;;;;;;;21.23;65.73;99389.78;4962548;28;20042;-91
2021/08/08 04:51:41;;;;;;;47.00;19.75;;;;;;;21.40;67.21;99412.59;4978857;28;20057;-91
2021/08/08 04:54:10;;;;;;;50.83;19.85;;;;;;;21.48;66.50;99426.16;4963546;28;20454;-92
2021/08/08 04:56:36;;;;;;;63.60;19.90;;;;;;;21.54;66.89;99421.84;4966096;28;20458;-77
2021/08/08 04:59:03;;;;;;;51.67;22.02;;;;;;;21.57;66.50;99421.09;4996509;28;20041;-80
2021/08/08 05:01:30;;;;;;;47.83;19.75;;;;;;;21.69;66.70;99424.75;4980742;28;20465;-80
2021/08/08 05:03:57;;;;;;;40.63;18.75;;;;;;;21.70;66.60;99410.47;5014170;28;20538;-80
2021/08/08 05:06:23;;;;;;;44.22;16.55;;;;;;;22.12;66.50;99425.06;4996142;28;20551;-80
2021/08/08 05:08:51;;;;;;;40.47;15.95;;;;;;;22.41;65.33;99435.22;4994548;28;20038;-82
2021/08/08 05:11:18;;;;;;;39.60;15.98;;;;;;;22.58;65.57;99446.84;4977482;28;20096;-81
2021/08/08 05:13:50;;;;;;;40.88;16.48;;;;;;;22.81;64.61;99452.91;4994572;28;20487;-80
2021/08/08 05:16:18;;;;;;;66.70;22.83;;;;;;;22.71;63.05;99434.16;4995139;28;20121;-82
2021/08/08 05:18:45;;;;;;;65.25;27.95;;;;;;;22.79;62.60;99413.50;4992752;28;20079;-86
2021/08/08 05:21:12;;;;;;;50.88;21.88;;;;;;;23.23;64.29;99445.09;4980676;28;20042;-89
2021/08/08 05:23:38;;;;;;;86.22;33.17;;;;;;;23.13;63.69;99416.00;4976929;28;20053;-85
2021/08/08 05:26:04;;;;;;;112.45;40.67;;;;;;;23.34;62.92;99457.06;4974449;28;20034;-85
2021/08/08 05:28:31;;;;;;;78.60;27.27;;;;;;;23.35;62.79;99447.53;4992044;28;20057;-85
2021/08/08 05:30:58;;;;;;;75.88;27.70;;;;;;;23.52;61.32;99462.69;4983663;28;20499;-89
2021/08/08 05:33:24;;;;;;;50.05;22.45;;;;;;;23.72;60.63;99465.94;4998995;28;20088;-86
2021/08/08 05:35:52;;;;;;;48.92;20.33;;;;;;;24.04;58.95;99475.09;4960910;28;20049;-80
2021/08/08 05:38:19;;;;;;;47.92;18.58;;;;;;;24.21;58.49;99475.50;4998654;28;20124;-81
2021/08/08 05:40:47;;;;;;;52.70;18.88;;;;;;;24.28;58.09;99479.06;5012773;28;20038;-86
2021/08/08 05:43:13;;;;;;;;;;;;;;;24.29;57.28;99482.66;4976141;28;20062;-83
2021/08/08 05:45:42;;;;;;;36.83;17.17;;;;;;;24.08;58.19;99470.31;4992187;28;19988;-79
2021/08/08 05:48:08;;;;;;;54.13;17.33;;;;;;;24.29;58.12;99475.06;4974455;28;20415;-86
2021/08/08 05:50:34;;;;;;;34.83;15.57;;;;;;;24.24;57.97;99474.66;4974390;28;20042;-84
2021/08/08 05:53:01;;;;;;;41.75;15.90;;;;;;;24.08;58.17;99478.69;4974784;28;20034;-88
2021/08/08 05:55:28;;;;;;;41.95;17.08;;;;;;;24.07;58.67;99467.91;4969406;28;20042;-80
2021/08/08 05:57:54;;;;;;;41.28;16.40;;;;;;;24.09;58.57;99462.72;4977586;28;20050;-84
2021/08/08 06:00:21;;;;;;;33.15;15.68;;;;;;;24.15;57.62;99475.09;4972900;28;20055;-82
2021/08/08 06:02:54;;;;;;;32.60;15.70;;;;;;;23.99;58.63;99460.75;4987925;28;20045;-82
2021/08/08 06:05:24;;;;;;;34.40;15.52;;;;;;;23.81;59.58;99467.13;4968932;28;20094;-83
2021/08/08 06:07:51;;;;;;;34.63;16.25;;;;;;;23.72;60.47;99485.47;4972246;28;20456;-85
2021/08/08 06:10:17;;;;;;;33.22;15.18;;;;;;;23.59;59.94;99485.81;4989666;28;20038;-82
2021/08/08 06:12:44;;;;;;;35.45;16.30;;;;;;;23.49;61.88;99488.59;4967423;28;20038;-85
2021/08/08 06:15:13;;;;;;;40.65;15.63;;;;;;;23.46;61.70;99498.56;4969211;28;20605;-90
2021/08/08 06:17:39;;;;;;;46.35;16.00;;;;;;;23.38;61.24;99503.31;4972665;28;20915;-82
2021/08/08 06:20:07;;;;;;;46.40;15.73;;;;;;;23.31;61.09;99514.47;4970576;28;20121;-80
2021/08/08 06:22:37;;;;;;;47.35;17.75;;;;;;;23.27;60.92;99493.31;4970409;28;20065;-81
2021/08/08 06:25:05;;;;;;;47.92;18.58;;;;;;;23.10;61.65;99480.94;4954142;28;20034;-82
2021/08/08 06:27:31;;;;;;;51.95;19.20;;;;;;;23.17;62.49;99497.69;4974153;28;20047;-81
2021/08/08 06:29:58;;;;;;;46.90;16.48;;;;;;;22.94;61.54;99496.00;4972723;28;20034;-83
2021/08/08 06:32:24;;;;;;;46.72;17.45;;;;;;;23.27;62.28;99533.16;4970735;28;20061;-82
2021/08/08 06:34:50;;;;;;;36.15;15.60;;;;;;;23.41;61.22;99513.69;4974314;28;20034;-81
2021/08/08 06:37:17;;;;;;;43.17;15.48;;;;;;;23.68;61.33;99550.47;4970088;28;20045;-81
2021/08/08 06:39:43;;;;;;;49.10;16.17;;;;;;;23.67;59.56;99514.53;4972001;28;20450;-81
2021/08/08 06:42:10;;;;;;;41.42;15.45;;;;;;;23.73;59.96;99542.88;4970774;28;20050;-84
2021/08/08 06:44:42;;;;;;;42.15;15.95;;;;;;;23.48;60.43;99504.56;4988672;28;20038;-85
2021/08/08 06:47:09;;;;;;;41.83;16.55;;;;;;;23.62;60.28;99542.84;4971595;28;20181;-82
2021/08/08 06:49:35;;;;;;;36.15;15.40;;;;;;;23.87;60.01;99532.56;5017835;28;20530;-81
2021/08/08 06:52:01;;;;;;;46.35;15.52;;;;;;;24.03;59.81;99548.91;4998597;28;20033;-81
2021/08/08 06:54:27;;;;;;;24.58;14.63;;;;;;;24.27;59.32;99554.88;5003602;28;20200;-86
2021/08/08 06:56:53;;;;;;;49.30;16.48;;;;;;;24.01;60.35;99542.13;4983923;28;20056;-85
2021/08/08 06:59:21;;;;;;;43.30;15.85;;;;;;;24.11;60.58;99542.13;5014581;28;20240;-82
2021/08/08 07:01:51;;;;;;;33.92;15.65;;;;;;;24.22;59.40;99518.97;4998869;28;20041;-82
2021/08/08 07:04:19;;;;;;;43.88;17.50;;;;;;;24.12;59.71;99528.94;5012781;28;20427;-86
2021/08/08 07:06:45;;;;;;;42.47;16.23;;;;;;;24.24;59.26;99533.31;4997772;28;20061;-83
2021/08/08 07:09:12;;;;;;;39.28;15.93;;;;;;;24.21;59.28;99534.16;5002723;28;20470;-82
2021/08/08 07:11:41;;;;;;;53.13;18.67;;;;;;;24.18;58.50;99532.16;4995599;28;20030;-84
2021/08/08 07:14:17;;;;;;;51.97;18.10;;;;;;;24.09;59.99;99535.34;5015978;28;20116;-83
2021/08/08 07:16:45;;;;;;;43.17;16.35;;;;;;;24.07;60.49;99534.94;5002071;28;20041;-84
2021/08/08 07:19:11;;;;;;;39.97;17.23;;;;;;;23.80;60.41;99489.84;5027687;28;20060;-83
2021/08/08 07:21:40;;;;;;;39.08;16.67;;;;;;;24.00;60.88;99529.34;5015489;28;20038;-86
2021/08/08 07:24:07;;;;;;;43.10;16.90;;;;;;;23.92;60.91;99540.50;5017017;28;20568;-86
2021/08/08 07:26:33;;;;;;;40.60;17.73;;;;;;;23.88;61.19;99538.94;5022924;28;20428;-83
2021/08/08 07:29:00;;;;;;;31.38;15.60;;;;;;;23.89;61.68;99526.56;5011580;28;20512;-84
2021/08/08 07:31:28;;;;;;;56.00;17.52;;;;;;;24.03;60.64;99520.97;5033632;28;20727;-84
2021/08/08 07:33:54;;;;;;;46.38;18.73;;;;;;;24.12;60.32;99538.13;5010530;28;20065;-83
2021/08/08 07:36:20;;;;;;;;;;;;;;;24.39;60.62;99540.50;4997913;28;20457;-84
2021/08/08 07:38:47;;;;;;;50.80;17.17;;;;;;;24.48;60.45;99531.75;5014031;28;20030;-83
2021/08/08 07:41:16;;;;;;;32.78;14.93;;;;;;;24.73;58.88;99531.69;5018631;28;20041;-85
2021/08/08 07:43:43;;;;;;;36.10;17.27;;;;;;;24.75;60.16;99557.25;5014784;28;20423;-83
2021/08/08 07:46:11;;;;;;;46.30;16.45;;;;;;;24.64;60.35;99557.28;5014758;28;20041;-84
2021/08/08 07:48:37;;;;;;;48.58;19.83;;;;;;;24.54;59.91;99541.31;5013934;28;20052;-87
2021/08/08 07:51:04;;;;;;;50.70;18.88;;;;;;;24.38;60.79;99539.72;5026981;28;20033;-83
2021/08/08 07:53:30;;;;;;;;;;;;;;;24.56;61.32;99559.25;4998043;28;20126;-83
2021/08/08 07:55:58;;;;;;;56.97;20.63;;;;;;;24.54;62.29;99550.50;5014459;28;19936;-82
2021/08/08 07:58:24;;;;;;;45.05;17.90;;;;;;;24.80;62.15;99566.03;4997128;28;20129;-81
2021/08/08 08:00:52;;;;;;;55.22;20.60;;;;;;;24.90;62.89;99558.00;5014680;28;20038;-81
2021/08/08 08:03:19;;;;;;;42.38;19.45;;;;;;;24.84;63.26;99577.19;4999158;28;20408;-83
2021/08/08 08:05:45;;;;;;;42.90;19.60;;;;;;;24.75;63.77;99585.19;4996409;28;20037;-82
2021/08/08 08:08:12;;;;;;;42.05;18.08;;;;;;;24.64;62.28;99592.81;5022093;28;20042;-87
2021/08/08 08:10:40;;;;;;;44.90;21.13;;;;;;;24.40;63.76;99567.25;5015399;28;20072;-79
2021/08/08 08:13:06;;;;;;;37.47;19.70;;;;;;;24.52;64.25;99588.44;5014362;28;20503;-79
2021/08/08 08:15:32;;;;;;;50.15;20.70;;;;;;;24.44;64.10;99587.66;4997036;28;20121;-79
2021/08/08 08:17:59;;;;;;;52.53;21.48;;;;;;;24.43;64.73;99586.03;5014542;28;20049;-82
2021/08/08 08:20:25;;;;;;;38.63;19.98;;;;;;;24.36;64.54;99575.63;5014380;28;20276;-80
2021/08/08 08:22:51;;;;;;;45.67;21.05;;;;;;;24.64;63.90;99590.81;4996715;28;20048;-83
2021/08/08 08:25:19;;;;;;;42.80;22.08;;;;;;;24.59;64.21;99594.81;5014553;28;20037;-81
2021/08/08 08:27:45;;;;;;;;;;;;;;;24.65;64.37;99591.63;5007531;28;20095;-80
2021/08/08 08:30:11;;;;;;;;;;;;;;;24.84;64.42;99589.19;5020513;28;19928;-79
2021/08/08 08:32:38;;;;;;;52.67;20.98;;;;;;;24.78;64.17;99593.59;5014269;28;19935;-81
2021/08/08 08:35:05;;;;;;;;;;;;;;;24.93;64.02;99588.75;5028443;28;20056;-83
2021/08/08 08:37:32;;;;;;;44.58;20.92;;;;;;;24.89;64.05;99582.38;5032446;28;19921;-86
2021/08/08 08:39:58;;;;;;;;;;;;;;;25.19;62.16;99595.09;5015308;28;20076;-79
2021/08/08 08:42:28;;;;;;;40.63;18.58;;;;;;;25.28;61.54;99587.06;5032378;28;20389;-82
2021/08/08 08:44:55;;;;;;;48.08;20.67;;;;;;;25.28;62.52;99584.28;5027126;28;20037;-85
2021/08/08 08:47:23;;;;;;;43.30;22.20;;;;;;;25.28;62.61;99578.69;5032342;28;20069;-84
2021/08/08 08:50:04;;;;;;;52.15;20.80;;;;;;;25.16;61.89;99571.53;5014214;28;20048;-84
2021/08/08 08:52:31;;;;;;;48.25;24.45;;;;;;;25.34;61.52;99587.47;5015176;28;20046;-83
2021/08/08 08:54:57;;;;;;;42.83;20.00;;;;;;;25.21;61.18;99578.72;4980974;28;20042;-81
2021/08/08 08:57:26;;;;;;;56.63;27.65;;;;;;;25.29;61.19;99585.88;5014323;28;20053;-84
2021/08/08 08:59:52;;;;;;;36.90;18.52;;;;;;;25.25;61.64;99582.28;5003704;28;20121;-78
2021/08/08 09:02:19;;;;;;;39.15;22.58;;;;;;;25.31;59.79;99575.06;5031564;28;20044;-78
2021/08/08 09:04:46;;;;;;;63.95;34.97;;;;;;;25.41;60.61;99567.81;5033876;28;20041;-88
2021/08/08 09:07:15;;;;;;;56.85;32.80;;;;;;;25.50;60.47;99574.59;5034146;28;20072;-79
2021/08/08 09:09:41;;;;;;;44.83;19.70;;;;;;;25.35;58.24;99584.25;5033799;28;20084;-83
2021/08/08 09:12:09;;;;;;;26.88;12.95;;;;;;;25.19;57.35;99578.31;5015971;28;20124;-79
2021/08/08 09:14:35;;;;;;;;;;;;;;;25.29;58.73;99591.47;5034458;28;20125;-82
2021/08/08 09:17:02;;;;;;;20.63;11.77;;;;;;;25.15;57.72;99595.09;5016471;28;20099;-84
2021/08/08 09:19:37;;;;;;;37.50;19.95;;;;;;;25.15;58.41;99586.72;5016275;28;20041;-82
2021/08/08 09:22:21;;;;;;;28.08;12.35;;;;;;;24.97;60.41;99580.38;4999203;28;20141;-81
2021/08/08 09:24:47;;;;;;;34.88;17.42;;;;;;;24.73;60.81;99593.97;4979637;28;20057;-81
2021/08/08 09:27:16;;;;;;;40.70;17.80;;;;;;;24.80;60.91;99618.34;5002517;28;20073;-84
2021/08/08 09:29:49;;;;;;;22.37;13.60;;;;;;;24.75;60.57;99604.78;5022654;28;20081;-83
2021/08/08 09:32:29;;;;;;;22.67;12.32;;;;;;;24.52;60.46;99610.78;5020873;28;20277;-82
2021/08/08 09:35:09;;;;;;;27.95;13.88;;;;;;;24.45;61.00;99606.00;5023577;28;20633;-82
2021/08/08 09:37:36;;;;;;;28.25;13.90;;;;;;;24.38;61.80;99597.59;5013132;28;20045;-82
2021/08/08 09:40:12;;;;;;;21.52;12.60;;;;;;;24.47;62.13;99617.59;5016253;28;20136;-82
2021/08/08 09:42:45;;;;;;;24.35;13.52;;;;;;;24.76;60.63;99609.94;5004434;28;20041;-83
2021/08/08 09:45:14;;;;;;;27.08;11.88;;;;;;;24.77;59.73;99611.56;4995810;28;20062;-85
2021/08/08 09:47:49;;;;;;;24.65;13.48;;;;;;;24.78;60.68;99612.38;5023068;28;20474;-82
2021/08/08 09:50:23;;;;;;;26.27;11.52;;;;;;;24.87;57.79;99597.94;5008553;28;20135;-85
2021/08/08 09:52:56;;;;;;;26.70;12.57;;;;;;;25.00;59.60;99616.72;5010199;28;20072;-84
2021/08/08 09:55:33;;;;;;;23.67;12.13;;;;;;;25.24;57.79;99612.28;5028728;28;20048;-86
2021/08/08 09:58:01;;;;;;;26.60;12.80;;;;;;;25.47;57.96;99594.19;5026585;28;20049;-83
2021/08/08 10:00:35;;;;;;;22.60;10.45;;;;;;;25.52;56.54;99599.34;5010030;28;20045;-82
2021/08/08 10:03:04;;;;;;;24.02;12.30;;;;;;;25.60;56.89;99612.13;5013618;28;20592;-86
2021/08/08 10:05:34;;;;;;;25.83;10.82;;;;;;;25.68;56.33;99610.06;5026626;28;20095;-85
2021/08/08 10:08:08;;;;;;;23.77;11.52;;;;;;;25.64;56.00;99614.91;5039742;28;20099;-79
2021/08/08 10:10:37;;;;;;;18.40;10.57;;;;;;;25.63;55.80;99616.91;5038679;28;20037;-79
2021/08/08 10:13:22;;;;;;;18.15;10.25;;;;;;;25.64;55.93;99629.69;5039579;28;20049;-85
2021/08/08 10:15:51;;;;;;;17.58;10.32;;;;;;;25.64;55.84;99637.31;5009547;28;20232;-85
2021/08/08 10:18:26;;;;;;;21.73;12.82;;;;;;;25.66;55.64;99643.28;5041618;28;20049;-84
2021/08/08 10:20:53;;;;;;;24.77;12.60;;;;;;;25.49;56.75;99633.75;5032220;28;20038;-80
2021/08/08 10:23:21;;;;;;;21.33;11.48;;;;;;;25.37;57.28;99635.03;5017061;28;20203;-80
2021/08/08 10:25:51;;;;;;;27.33;11.95;;;;;;;25.33;57.14;99636.22;5016045;28;20121;-80
2021/08/08 10:28:19;;;;;;;22.05;13.18;;;;;;;25.29;57.68;99636.22;5014857;28;20174;-82
2021/08/08 10:30:47;;;;;;;20.98;12.88;;;;;;;25.38;56.81;99633.81;5001704;28;20107;-85
2021/08/08 10:33:15;;;;;;;24.65;12.52;;;;;;;25.32;56.85;99629.81;5017429;28;20053;-80
2021/08/08 10:35:43;;;;;;;19.77;11.85;;;;;;;25.31;56.95;99634.63;5014384;28;20187;-79
2021/08/08 10:38:11;;;;;;;18.10;11.30;;;;;;;25.37;56.29;99632.22;5025745;28;20044;-81
2021/08/08 10:40:40;;;;;;;25.02;11.02;;;;;;;25.47;56.76;99631.38;5040267;28;20049;-82
2021/08/08 10:43:08;;;;;;;26.60;14.25;;;;;;;25.66;56.29;99640.47;5052643;28;20042;-81
2021/08/08 10:45:38;;;;;;;33.03;16.25;;;;;;;25.69;56.61;99640.47;5054790;28;20017;-83
2021/08/08 10:48:11;;;;;;;28.95;15.40;;;;;;;25.73;56.57;99635.66;5052974;28;20049;-81
2021/08/08 10:50:45;;;;;;;27.00;13.02;;;;;;;25.57;57.56;99626.94;5051200;28;20097;-82
2021/08/08 10:53:21;;;;;;;21.70;11.25;;;;;;;25.52;56.62;99630.16;5035163;28;20053;-82
2021/08/08 10:55:48;;;;;;;;;;;;;;;25.54;56.90;99631.34;5036317;28;20056;-84
2021/08/08 10:58:17;;;;;;;18.88;11.55;;;;;;;25.58;56.52;99613.72;5052957;28;19917;-80
2021/08/08 11:00:44;;;;;;;27.08;11.93;;;;;;;25.69;55.53;99636.84;5053750;28;20025;-81
2021/08/08 11:03:18;;;;;;;22.35;11.15;;;;;;;25.70;55.88;99652.47;5052259;28;20345;-83
2021/08/08 11:05:45;;;;;;;22.25;11.90;;;;;;;25.80;54.82;99636.81;5049167;28;20037;-86
2021/08/08 11:08:15;;;;;;;25.85;11.80;;;;;;;25.85;55.71;99645.59;5028691;28;20057;-80
2021/08/08 11:10:43;;;;;;;18.83;11.38;;;;;;;25.94;54.56;99648.75;5011671;28;20042;-80
2021/08/08 11:13:18;;;;;;;29.92;11.75;;;;;;;25.89;53.81;99642.78;5027462;28;20036;-84
2021/08/08 11:15:46;;;;;;;21.88;10.93;;;;;;;25.78;54.78;99642.81;5028709;28;20465;-80
2021/08/08 11:18:13;;;;;;;;;;;;;;;25.87;55.74;99654.41;5028449;28;20041;-80
2021/08/08 11:20:40;;;;;;;21.80;12.93;;;;;;;25.87;56.04;99654.41;5027750;28;19921;-80
2021/08/08 11:23:06;;;;;;;25.35;12.88;;;;;;;25.85;55.81;99645.59;5027077;28;20041;-81
2021/08/08 11:25:41;;;;;;;32.65;13.20;;;;;;;25.82;55.38;99648.44;5026123;28;20037;-89
2021/08/08 11:28:08;;;;;;;33.20;14.27;;;;;;;25.65;55.68;99645.28;5026112;28;20055;-79
2021/08/08 11:30:43;;;;;;;29.48;14.48;;;;;;;25.55;56.71;99655.31;5026228;28;20102;-79
2021/08/08 11:33:11;;;;;;;32.35;14.57;;;;;;;25.56;56.30;99650.50;5028929;28;20124;-78
2021/08/08 11:35:38;;;;;;;22.85;11.73;;;;;;;25.53;55.61;99654.16;5026664;28;20501;-81
2021/08/08 11:38:17;;;;;;;22.80;12.48;;;;;;;25.35;57.17;99668.19;5029937;28;20087;-79
2021/08/08 11:40:45;;;;;;;24.83;12.70;;;;;;;25.36;57.13;99669.78;4980766;28;20041;-79
2021/08/08 11:43:11;;;;;;;33.17;13.68;;;;;;;25.41;57.27;99677.78;5004182;28;20517;-81
2021/08/08 11:45:49;;;;;;;25.88;12.35;;;;;;;25.26;57.15;99682.59;4986777;28;20403;-80
2021/08/08 11:48:21;;;;;;;21.83;12.15;;;;;;;25.01;58.32;99679.84;5018661;28;20455;-89
2021/08/08 11:50:59;;;;;;;21.60;11.73;;;;;;;24.87;59.41;99682.66;5024538;28;20044;-80
2021/08/08 11:53:36;;;;;;;22.08;11.95;;;;;;;24.75;58.97;99674.69;5006022;28;20048;-89
2021/08/08 11:56:17;;;;;;;36.65;22.83;;;;;;;24.60;60.11;99676.66;5023826;28;20047;-87
2021/08/08 11:58:49;;;;;;;28.52;13.48;;;;;;;24.51;60.30;99663.09;5023114;28;20042;-82
2021/08/08 12:01:19;;;;;;;25.48;13.60;;;;;;;24.53;61.04;99677.47;5024640;28;20992;-79
2021/08/08 12:03:52;;;;;;;22.00;12.50;;;;;;;24.32;60.73;99671.84;5023777;28;20042;-82
2021/08/08 12:06:23;;;;;;;23.83;13.27;;;;;;;24.28;61.48;99676.63;5024079;28;20457;-78
2021/08/08 12:08:52;;;;;;;60.53;33.38;;;;;;;24.42;60.65;99673.06;5023290;28;20060;-79
2021/08/08 12:11:20;;;;;;;42.83;25.20;;;;;;;24.44;60.69;99679.06;5017203;28;20034;-79
2021/08/08 12:14:07;;;;;;;30.83;15.55;;;;;;;24.39;61.07;99678.22;5007494;28;20037;-85
2021/08/08 12:16:37;;;;;;;34.42;17.63;;;;;;;24.54;60.33;99681.06;5016846;28;20046;-84
2021/08/08 12:19:05;;;;;;;34.58;19.95;;;;;;;24.64;59.66;99676.69;5025371;28;20064;-86
2021/08/08 12:21:40;;;;;;;44.10;22.15;;;;;;;24.51;60.33;99679.06;5011878;28;20038;-85
2021/08/08 12:24:12;;;;;;;32.33;20.55;;;;;;;24.34;60.95;99672.25;5013688;28;20073;-80
2021/08/08 12:26:41;;;;;;;35.20;16.05;;;;;;;24.21;61.05;99657.06;5014261;28;20426;-82
2021/08/08 12:29:08;;;;;;;41.03;21.92;;;;;;;24.27;62.66;99663.84;5006800;28;20049;-79
2021/08/08 12:31:40;;;;;;;32.67;16.70;;;;;;;24.27;63.41;99666.63;4994441;28;20902;-80
2021/08/08 12:34:11;;;;;;;48.05;16.10;;;;;;;24.30;62.23;99668.63;5015445;28;20136;-82
2021/08/08 12:36:43;;;;;;;35.60;14.38;;;;;;;24.28;62.81;99660.66;5022873;28;20409;-84
2021/08/08 12:39:11;;;;;;;35.55;14.60;;;;;;;24.21;64.37;99654.28;5006353;28;20050;-86
2021/08/08 12:41:42;;;;;;;32.92;11.70;;;;;;;24.32;62.38;99669.03;5008483;28;20038;-84
2021/08/08 12:44:10;;;;;;;45.60;13.77;;;;;;;24.37;63.85;99671.44;4997813;28;20411;-85
2021/08/08 12:46:41;;;;;;;30.85;12.65;;;;;;;24.28;62.92;99652.28;5007473;28;20030;-80
2021/08/08 12:49:12;;;;;;;28.08;12.35;;;;;;;24.49;61.73;99673.88;5015714;28;20046;-85
2021/08/08 12:51:40;;;;;;;52.80;19.73;;;;;;;24.54;61.38;99681.88;5002811;28;20034;-87
2021/08/08 12:54:07;;;;;;;42.70;19.58;;;;;;;24.50;60.39;99658.72;5011683;28;20100;-82
2021/08/08 12:56:34;;;;;;;45.38;18.67;;;;;;;24.74;60.24;99687.06;4990186;28;20425;-80
2021/08/08 12:59:00;;;;;;;34.00;14.88;;;;;;;24.76;60.84;99679.84;5012149;28;20046;-81
2021/08/08 13:01:29;;;;;;;39.53;14.75;;;;;;;24.85;61.24;99669.06;5016399;28;20102;-84
2021/08/08 13:03:57;;;;;;;42.53;14.30;;;;;;;24.92;60.88;99682.25;5004016;28;20065;-79
2021/08/08 13:06:23;;;;;;;44.85;17.00;;;;;;;24.98;59.11;99675.06;5001206;28;20148;-78
2021/08/08 13:08:51;;;;;;;33.55;15.95;;;;;;;25.02;59.85;99677.84;5000996;28;20044;-84
2021/08/08 13:11:19;;;;;;;28.17;14.23;;;;;;;25.06;59.66;99675.81;5000853;28;20057;-83
2021/08/08 13:13:45;;;;;;;30.23;14.00;;;;;;;25.05;59.77;99680.63;5007372;28;20048;-87
2021/08/08 13:16:11;;;;;;;36.97;18.42;;;;;;;25.18;59.36;99685.84;5003330;28;20578;-78
2021/08/08 13:18:37;;;;;;;32.50;14.70;;;;;;;25.35;59.61;99679.38;5006200;28;20128;-82
2021/08/08 13:21:04;;;;;;;28.65;15.85;;;;;;;25.39;57.93;99677.38;4998600;28;20347;-80
2021/08/08 13:23:31;;;;;;;37.78;13.88;;;;;;;25.61;57.36;99682.91;5002034;28;20434;-79
2021/08/08 13:25:58;;;;;;;29.65;14.52;;;;;;;25.51;57.37;99657.34;4988549;28;20038;-82
2021/08/08 13:28:25;;;;;;;;;;;;;;;25.67;57.94;99682.09;5004413;28;20073;-83
2021/08/08 13:30:51;;;;;;;39.13;16.15;;;;;;;25.70;56.87;99683.28;5015417;28;20591;-79
2021/08/08 13:33:18;;;;;;;33.90;18.33;;;;;;;25.86;56.63;99685.63;5018073;28;20041;-80
2021/08/08 13:35:44;;;;;;;31.83;17.35;;;;;;;25.95;56.96;99689.56;5017741;28;20033;-76
2021/08/08 13:38:10;;;;;;;;;;;;;;;26.02;56.88;99681.13;5018363;28;20081;-77
2021/08/08 13:40:36;;;;;;;;;;;;;;;25.98;58.27;99688.75;5019066;28;20014;-92
2021/08/08 13:43:02;;;;;;;26.35;14.63;;;;;;;25.67;57.59;99662.47;4986377;28;20016;-87
2021/08/08 13:45:31;;;;;;;33.08;12.95;;;;;;;25.62;57.67;99685.28;5002794;28;20050;-88
2021/08/08 13:47:57;;;;;;;;;;;;;;;25.52;58.95;99689.72;4970034;28;20068;-88
2021/08/08 13:50:23;;;;;;;24.42;12.60;;;;;;;25.30;59.07;99660.22;4970405;28;19921;-89
2021/08/08 13:52:49;;;;;;;21.52;13.02;;;;;;;25.22;60.70;99661.44;5019719;28;20083;-90
2021/08/08 13:55:20;;;;;;;29.33;14.43;;;;;;;25.13;59.88;99644.28;4986729;28;20041;-93
2021/08/08 13:57:47;;;;;;;34.63;14.68;;;;;;;25.28;59.49;99680.22;5002536;28;20047;-88
2021/08/08 14:00:16;;;;;;;29.67;14.90;;;;;;;25.34;60.40;99688.19;4986356;28;20052;-87
2021/08/08 14:02:42;;;;;;;23.20;12.80;;;;;;;25.37;59.68;99693.00;5001497;28;20049;-87
2021/08/08 14:05:11;;;;;;;22.25;13.07;;;;;;;25.33;59.73;99697.78;5001689;28;20041;-88
2021/08/08 14:07:38;;;;;;;26.67;14.05;;;;;;;25.21;60.45;99683.03;4987464;28;20064;-87
2021/08/08 14:10:14;;;;;;;22.25;13.35;;;;;;;25.30;59.33;99696.63;5019511;28;20037;-89
2021/08/08 14:12:44;;;;;;;28.30;14.60;;;;;;;24.94;59.01;99649.09;5020227;28;20518;-96
2021/08/08 14:15:11;;;;;;;21.27;13.30;;;;;;;25.19;59.25;99696.63;5002348;28;20064;-95
2021/08/08 14:17:42;;;;;;;25.33;12.57;;;;;;;25.21;59.42;99702.63;4986272;28;20037;-92
2021/08/08 14:20:09;;;;;;;25.25;13.90;;;;;;;25.27;58.89;99700.22;5000797;28;20388;-94
2021/08/08 14:22:35;;;;;;;;;;;;;;;25.22;59.09;99707.00;5013652;28;20058;-87
2021/08/08 14:25:01;;;;;;;33.88;16.63;;;;;;;25.22;59.78;99704.22;4965444;28;19932;-87
2021/08/08 14:27:27;;;;;;;33.58;17.42;;;;;;;25.03;59.00;99683.03;4965152;28;20171;-86
2021/08/08 14:29:53;;;;;;;31.58;15.00;;;;;;;24.91;59.12;99663.88;5015415;28;20037;-88
2021/08/08 14:32:28;;;;;;;29.23;13.05;;;;;;;25.18;59.30;99711.81;5010532;28;20041;-89
2021/08/08 14:34:56;;;;;;;27.52;14.85;;;;;;;25.10;59.87;99696.22;5020679;28;20037;-90
2021/08/08 14:37:27;;;;;;;29.75;15.50;;;;;;;25.18;59.59;99711.03;5012850;28;20045;-89
2021/08/08 14:39:53;;;;;;;26.45;13.25;;;;;;;24.74;59.00;99639.53;5039617;28;20057;-91
2021/08/08 14:42:19;;;;;;;28.40;14.52;;;;;;;25.27;58.84;99695.41;5010268;28;20072;-79
2021/08/08 14:44:47;;;;;;;30.08;14.23;;;;;;;25.36;58.69;99685.78;5002738;28;20037;-78
2021/08/08 14:47:13;;;;;;;;;;;;;;;25.60;58.37;99698.13;5010759;28;20057;-83
2021/08/08 14:49:39;;;;;;;35.63;14.73;;;;;;;25.64;57.83;99693.31;5005122;28;20781;-86
2021/08/08 14:52:05;;;;;;;132.75;21.25;;;;;;;25.83;57.40;99694.81;4980339;28;20042;-83
2021/08/08 14:54:32;;;;;;;462.38;43.45;;;;;;;25.96;57.23;99691.19;4995492;28;20037;-80
2021/08/08 14:56:58;;;;;;;108.10;23.13;;;;;;;25.95;57.59;99700.78;5003472;28;20133;-80
2021/08/08 14:59:24;;;;;;;70.10;17.50;;;;;;;26.17;56.12;99695.06;4972795;28;20069;-79
2021/08/08 15:01:50;;;;;;;45.58;16.08;;;;;;;26.37;55.88;99682.13;4999022;28;20943;-82
2021/08/08 15:04:16;;;;;;;42.67;16.05;;;;;;;26.50;54.84;99692.88;4997762;28;20049;-78
2021/08/08 15:06:42;;;;;;;53.38;18.27;;;;;;;26.48;54.70;99680.03;5000848;28;20058;-80
2021/08/08 15:09:10;;;;;;;87.53;19.15;;;;;;;26.56;54.09;99688.44;4995411;28;20053;-79
2021/08/08 15:11:36;;;;;;;60.97;19.63;;;;;;;26.60;53.92;99683.59;4991233;28;20042;-79
2021/08/08 15:14:02;;;;;;;71.43;21.02;;;;;;;26.76;53.88;99685.88;4975715;28;20046;-81
2021/08/08 15:16:28;;;;;;;33.75;16.00;;;;;;;26.99;52.76;99686.03;5002279;28;20072;-80
2021/08/08 15:18:55;;;;;;;36.42;15.23;;;;;;;27.11;51.44;99684.72;4989434;28;20040;-79
2021/08/08 15:21:21;;;;;;;36.28;16.55;;;;;;;27.21;52.91;99688.66;5000000;28;20042;-81
2021/08/08 15:23:48;;;;;;;61.67;23.58;;;;;;;27.35;53.08;99683.69;4997937;28;20904;-80
2021/08/08 15:26:14;;;;;;;45.75;19.92;;;;;;;27.48;52.31;99688.75;4988527;28;20033;-78
2021/08/08 15:28:45;;;;;;;39.22;17.30;;;;;;;27.40;52.90;99677.59;4990067;28;20053;-79
2021/08/08 15:31:12;;;;;;;33.60;17.25;;;;;;;27.45;53.28;99676.38;4999228;28;20125;-84
2021/08/08 15:33:39;;;;;;;44.60;15.93;;;;;;;27.41;52.79;99673.56;4988611;28;20111;-77
2021/08/08 15:36:05;;;;;;;;;;;;;;;27.49;51.91;99693.16;4988395;28;20041;-80
2021/08/08 15:38:31;;;;;;;;;;;;;;;27.45;50.66;99683.97;4988894;28;20159;-78
2021/08/08 15:40:57;;;;;;;65.25;19.27;;;;;;;27.36;51.41;99673.25;4986806;28;19967;-84
2021/08/08 15:43:24;;;;;;;82.07;25.08;;;;;;;27.30;52.26;99680.53;4989358;28;20156;-80
2021/08/08 15:45:52;;;;;;;134.52;22.13;;;;;;;27.32;52.07;99692.16;4989153;28;20034;-79
2021/08/08 15:48:19;;;;;;;125.50;24.35;;;;;;;27.29;52.48;99690.97;4994781;28;20413;-82
2021/08/08 15:50:46;;;;;;;71.50;23.65;;;;;;;27.21;53.08;99677.44;4995254;28;20919;-79
2021/08/08 15:53:13;;;;;;;79.28;20.05;;;;;;;27.05;53.86;99675.97;4989942;28;20097;-79
2021/08/08 15:55:41;;;;;;;43.90;17.98;;;;;;;26.86;52.55;99654.09;5000186;28;20911;-83
2021/08/08 15:58:07;;;;;;;69.80;18.60;;;;;;;26.95;52.85;99668.41;5009231;28;20048;-82
2021/08/08 16:00:33;;;;;;;33.53;16.23;;;;;;;26.71;53.84;99665.44;5006227;28;20041;-83
2021/08/08 16:02:59;;;;;;;59.58;16.05;;;;;;;26.71;52.60;99679.47;4995850;28;20049;-84
2021/08/08 16:05:26;;;;;;;117.47;20.33;;;;;;;26.61;54.17;99671.94;4993012;28;20045;-83
2021/08/08 16:07:54;;;;;;;218.15;26.17;;;;;;;26.43;55.69;99649.63;5006911;28;20056;-85
2021/08/08 16:10:23;;;;;;;220.52;28.63;;;;;;;26.45;55.41;99668.84;5006992;28;20033;-84
2021/08/08 16:12:49;;;;;;;142.15;25.85;;;;;;;26.18;55.54;99647.00;5007103;28;20569;-82